Date,TemperatureHighF,TemperatureAvgF,TemperatureLowF,DewpointHighF,DewpointAvgF,DewpointLowF,HumidityHigh,HumidityAvg,HumidityLow,PressureMaxIn,PressureMinIn,WindSpeedMaxMPH,WindSpeedAvgMPH,GustSpeedMaxMPH,PrecipitationSumIn
2013-2-1,82.0,72.7,66.6,63.2,60.0,51.3,83,66,42,30.00,29.87,29,16,37,0.00
2013-2-2,86.4,71.5,61.5,63.8,55.8,44.0,77,59,38,30.03,29.93,18,10,25,0.00
2013-2-3,85.1,69.8,62.1,61.9,56.6,54.2,78,64,36,30.06,29.93,26,12,30,0.00
2013-2-4,80.6,70.5,64.4,63.9,58.2,54.1,83,66,43,29.99,29.91,28,15,36,0.00
2013-2-5,82.4,71.4,64.9,61.0,58.3,54.6,79,64,43,29.97,29.87,22,13,34,0.00
2013-2-6,82.8,72.1,64.0,63.4,58.7,52.6,79,63,45,29.97,29.87,22,10,30,0.00
2013-2-7,80.8,72.8,66.9,67.9,62.0,55.5,80,69,54,30.01,29.88,19,10,28,0.04
2013-2-8,83.8,72.9,63.1,65.3,60.9,52.9,80,67,42,30.03,29.91,19,9,23,0.00
2013-2-9,82.0,71.4,60.6,63.8,59.1,49.6,78,66,49,30.01,29.91,22,12,32,0.00
2013-2-10,84.0,73.0,65.7,63.8,59.5,55.7,80,64,38,30.06,29.92,26,15,36,0.00
2013-2-11,84.7,72.3,63.9,64.0,58.9,52.0,80,64,36,30.08,29.96,25,14,36,0.01
2013-2-12,81.9,70.5,64.2,59.9,58.0,56.4,80,66,43,30.06,29.94,22,12,33,0.00
2013-2-13,80.2,69.2,62.1,56.9,54.3,50.6,78,61,41,30.02,29.89,20,12,26,0.00
2013-2-14,82.2,69.6,60.6,57.8,55.8,49.9,80,63,41,29.98,29.86,21,12,28,0.00
2013-2-15,81.7,71.0,60.6,62.8,58.7,52.7,78,66,49,29.99,29.85,26,12,36,0.02
2013-2-16,80.2,71.7,66.7,60.6,58.5,55.5,77,64,47,29.98,29.84,28,17,37,0.08
2013-2-17,82.2,72.3,65.3,60.7,55.7,47.6,72,57,37,29.99,29.86,31,17,41,0.14
2013-2-18,79.7,70.8,65.1,61.1,57.2,50.5,73,63,49,29.99,29.85,34,18,49,0.29
2013-2-19,79.7,70.4,64.8,60.4,57.4,54.8,76,64,47,30.00,29.86,30,17,41,0.02
2013-2-20,82.2,72.0,63.5,61.5,59.0,54.1,79,65,44,30.01,29.91,25,14,40,0.02
2013-2-21,83.3,72.6,65.1,65.4,61.1,57.8,80,68,50,30.01,29.91,19,12,28,0.00
2013-2-22,86.2,73.1,65.7,61.8,58.3,55.8,75,60,39,30.01,29.89,23,13,33,0.00
2013-2-23,82.9,72.2,66.7,64.2,58.9,56.1,80,64,41,30.00,29.90,23,14,31,0.00
2013-2-24,82.4,71.7,65.7,61.6,59.2,55.4,77,66,46,29.99,29.86,28,16,33,0.00
2013-2-25,83.3,71.8,64.4,62.4,59.3,57.0,79,66,44,30.01,29.89,24,16,36,0.00
2013-2-26,83.5,71.6,64.6,61.5,56.2,51.3,74,59,38,30.03,29.91,28,16,44,0.01
2013-2-27,81.3,71.4,65.1,59.8,57.3,52.3,75,62,45,30.05,29.95,25,14,32,0.01
2013-2-28,81.7,70.7,62.4,59.1,55.1,48.5,75,59,40,30.07,29.95,22,14,33,0.00